sensor_id;sensor_type;location;lat;lon;timestamp;temperature;humidity
10968;DHT22;5536;49.602;10.980;2022-10-31T00:00:14;11.10;99.90
10968;DHT22;5536;49.602;10.980;2022-10-31T00:02:41;11.10;99.90
10968;DHT22;5536;49.602;10.980;2022-10-31T00:05:08;11.10;99.90
10968;DHT22;5536;49.602;10.980;2022-10-31T00:07:35;11.20;99.90
10968;DHT22;5536;49.602;10.980;2022-10-31T00:10:03;11.20;99.90
10968;DHT22;5536;49.602;10.980;2022-10-31T00:12:31;11.20;99.90
10968;DHT22;5536;49.602;10.980;2022-10-31T00:14:58;11.10;99.90
10968;DHT22;5536;49.602;10.980;2022-10-31T00:17:25;11.30;99.90
10968;DHT22;5536;49.602;10.980;2022-10-31T00:19:52;11.10;99.90
10968;DHT22;5536;49.602;10.980;2022-10-31T00:22:19;11.20;99.90
10968;DHT22;5536;49.602;10.980;2022-10-31T00:24:45;11.30;99.90
10968;DHT22;5536;49.602;10.980;2022-10-31T00:27:12;11.10;99.90
10968;DHT22;5536;49.602;10.980;2022-10-31T00:29:41;10.90;99.90
10968;DHT22;5536;49.602;10.980;2022-10-31T00:32:07;10.80;99.90
10968;DHT22;5536;49.602;10.980;2022-10-31T00:34:34;11.00;99.90
10968;DHT22;5536;49.602;10.980;2022-10-31T00:37:01;11.20;99.90
10968;DHT22;5536;49.602;10.980;2022-10-31T00:39:28;11.20;99.90
10968;DHT22;5536;49.602;10.980;2022-10-31T00:41:55;11.20;99.90
10968;DHT22;5536;49.602;10.980;2022-10-31T00:44:22;11.10;99.90
10968;DHT22;5536;49.602;10.980;2022-10-31T00:46:50;10.90;99.90
10968;DHT22;5536;49.602;10.980;2022-10-31T00:49:17;10.80;99.90
10968;DHT22;5536;49.602;10.980;2022-10-31T00:51:44;10.80;99.90
10968;DHT22;5536;49.602;10.980;2022-10-31T00:54:11;10.90;99.90
10968;DHT22;5536;49.602;10.980;2022-10-31T00:56:38;10.90;99.90
10968;DHT22;5536;49.602;10.980;2022-10-31T00:59:05;10.70;99.90
10968;DHT22;5536;49.602;10.980;2022-10-31T01:01:31;10.80;99.90
10968;DHT22;5536;49.602;10.980;2022-10-31T01:04:00;10.90;99.90
10968;DHT22;5536;49.602;10.980;2022-10-31T01:06:27;10.60;99.90
10968;DHT22;5536;49.602;10.980;2022-10-31T01:08:54;10.70;99.90
10968;DHT22;5536;49.602;10.980;2022-10-31T01:11:22;10.80;99.90
10968;DHT22;5536;49.602;10.980;2022-10-31T01:13:51;10.80;99.90
10968;DHT22;5536;49.602;10.980;2022-10-31T01:16:20;10.80;99.90
10968;DHT22;5536;49.602;10.980;2022-10-31T01:18:47;10.70;99.90
10968;DHT22;5536;49.602;10.980;2022-10-31T01:21:17;10.70;99.90
10968;DHT22;5536;49.602;10.980;2022-10-31T01:23:45;10.40;99.90
10968;DHT22;5536;49.602;10.980;2022-10-31T01:26:14;10.30;99.90
10968;DHT22;5536;49.602;10.980;2022-10-31T01:28:44;10.20;99.90
10968;DHT22;5536;49.602;10.980;2022-10-31T01:31:12;10.40;99.90
10968;DHT22;5536;49.602;10.980;2022-10-31T01:33:39;10.50;99.90
10968;DHT22;5536;49.602;10.980;2022-10-31T01:36:16;10.50;99.90
10968;DHT22;5536;49.602;10.980;2022-10-31T01:38:44;10.30;99.90
10968;DHT22;5536;49.602;10.980;2022-10-31T01:41:12;10.20;99.90
10968;DHT22;5536;49.602;10.980;2022-10-31T01:43:44;10.30;99.90
10968;DHT22;5536;49.602;10.980;2022-10-31T01:46:12;10.40;99.90
10968;DHT22;5536;49.602;10.980;2022-10-31T01:48:39;10.30;99.90
10968;DHT22;5536;49.602;10.980;2022-10-31T01:51:08;10.30;99.90
10968;DHT22;5536;49.602;10.980;2022-10-31T01:53:39;10.50;99.90
10968;DHT22;5536;49.602;10.980;2022-10-31T01:56:07;10.70;99.90
10968;DHT22;5536;49.602;10.980;2022-10-31T01:58:34;10.80;99.90
10968;DHT22;5536;49.602;10.980;2022-10-31T02:01:02;10.80;99.90
10968;DHT22;5536;49.602;10.980;2022-10-31T02:03:30;10.90;99.90
10968;DHT22;5536;49.602;10.980;2022-10-31T02:05:57;11.00;99.90
10968;DHT22;5536;49.602;10.980;2022-10-31T02:08:27;11.00;99.90
10968;DHT22;5536;49.602;10.980;2022-10-31T02:10:57;11.00;99.90
10968;DHT22;5536;49.602;10.980;2022-10-31T02:13:25;10.90;99.90
10968;DHT22;5536;49.602;10.980;2022-10-31T02:15:54;10.80;99.90
10968;DHT22;5536;49.602;10.980;2022-10-31T02:18:22;10.90;99.90
10968;DHT22;5536;49.602;10.980;2022-10-31T02:20:58;10.80;99.90
10968;DHT22;5536;49.602;10.980;2022-10-31T02:27:09;10.70;99.90
10968;DHT22;5536;49.602;10.980;2022-10-31T02:30:10;10.50;99.90
10968;DHT22;5536;49.602;10.980;2022-10-31T02:33:15;10.30;99.90
10968;DHT22;5536;49.602;10.980;2022-10-31T02:35:54;10.40;99.90
10968;DHT22;5536;49.602;10.980;2022-10-31T02:38:29;10.40;99.90
10968;DHT22;5536;49.602;10.980;2022-10-31T02:41:05;10.50;99.90
10968;DHT22;5536;49.602;10.980;2022-10-31T02:43:40;10.40;99.90
10968;DHT22;5536;49.602;10.980;2022-10-31T02:46:14;10.30;99.90
10968;DHT22;5536;49.602;10.980;2022-10-31T02:48:44;10.40;99.90
10968;DHT22;5536;49.602;10.980;2022-10-31T02:51:13;10.50;99.90
10968;DHT22;5536;49.602;10.980;2022-10-31T02:53:39;10.50;99.90
10968;DHT22;5536;49.602;10.980;2022-10-31T02:56:11;10.40;99.90
10968;DHT22;5536;49.602;10.980;2022-10-31T02:58:40;10.40;99.90
10968;DHT22;5536;49.602;10.980;2022-10-31T03:01:31;10.30;99.90
10968;DHT22;5536;49.602;10.980;2022-10-31T03:07:06;10.40;99.90
10968;DHT22;5536;49.602;10.980;2022-10-31T03:09:42;10.30;99.90
10968;DHT22;5536;49.602;10.980;2022-10-31T03:12:16;10.30;99.90
10968;DHT22;5536;49.602;10.980;2022-10-31T03:14:51;10.20;99.90
10968;DHT22;5536;49.602;10.980;2022-10-31T03:17:26;10.30;99.90
10968;DHT22;5536;49.602;10.980;2022-10-31T03:19:56;10.30;99.90
10968;DHT22;5536;49.602;10.980;2022-10-31T03:22:27;10.50;99.90
10968;DHT22;5536;49.602;10.980;2022-10-31T03:24:56;10.40;99.90
10968;DHT22;5536;49.602;10.980;2022-10-31T03:27:26;10.50;99.90
10968;DHT22;5536;49.602;10.980;2022-10-31T03:29:56;10.60;99.90
10968;DHT22;5536;49.602;10.980;2022-10-31T03:32:27;10.70;99.90
10968;DHT22;5536;49.602;10.980;2022-10-31T03:34:59;10.70;99.90
10968;DHT22;5536;49.602;10.980;2022-10-31T03:37:28;10.60;99.90
10968;DHT22;5536;49.602;10.980;2022-10-31T03:39:58;10.60;99.90
10968;DHT22;5536;49.602;10.980;2022-10-31T03:42:30;10.60;99.90
10968;DHT22;5536;49.602;10.980;2022-10-31T03:44:59;10.70;99.90
10968;DHT22;5536;49.602;10.980;2022-10-31T03:47:28;10.70;99.90
10968;DHT22;5536;49.602;10.980;2022-10-31T03:49:57;10.60;99.90
10968;DHT22;5536;49.602;10.980;2022-10-31T03:52:27;10.30;99.90
10968;DHT22;5536;49.602;10.980;2022-10-31T03:54:57;10.20;99.90
10968;DHT22;5536;49.602;10.980;2022-10-31T03:57:29;10.20;99.90
10968;DHT22;5536;49.602;10.980;2022-10-31T04:00:04;10.40;99.90
10968;DHT22;5536;49.602;10.980;2022-10-31T04:02:33;10.50;99.90
10968;DHT22;5536;49.602;10.980;2022-10-31T04:05:03;10.50;99.90
10968;DHT22;5536;49.602;10.980;2022-10-31T04:07:34;10.50;99.90
10968;DHT22;5536;49.602;10.980;2022-10-31T04:10:06;10.40;99.90
10968;DHT22;5536;49.602;10.980;2022-10-31T04:12:35;10.40;99.90
10968;DHT22;5536;49.602;10.980;2022-10-31T04:15:05;10.50;99.90
10968;DHT22;5536;49.602;10.980;2022-10-31T04:17:35;10.50;99.90
10968;DHT22;5536;49.602;10.980;2022-10-31T04:20:07;10.40;99.90
10968;DHT22;5536;49.602;10.980;2022-10-31T04:22:34;10.50;99.90
10968;DHT22;5536;49.602;10.980;2022-10-31T04:25:01;10.50;99.90
10968;DHT22;5536;49.602;10.980;2022-10-31T04:27:28;10.40;99.90
10968;DHT22;5536;49.602;10.980;2022-10-31T04:29:55;10.10;99.90
10968;DHT22;5536;49.602;10.980;2022-10-31T04:32:21;10.20;99.90
10968;DHT22;5536;49.602;10.980;2022-10-31T04:34:48;10.00;99.90
10968;DHT22;5536;49.602;10.980;2022-10-31T04:37:18;9.90;99.90
10968;DHT22;5536;49.602;10.980;2022-10-31T04:39:45;9.90;99.90
10968;DHT22;5536;49.602;10.980;2022-10-31T04:42:12;9.80;99.90
10968;DHT22;5536;49.602;10.980;2022-10-31T04:44:39;9.80;99.90
10968;DHT22;5536;49.602;10.980;2022-10-31T04:47:05;9.70;99.90
10968;DHT22;5536;49.602;10.980;2022-10-31T04:49:32;9.70;99.90
10968;DHT22;5536;49.602;10.980;2022-10-31T04:51:59;9.60;99.90
10968;DHT22;5536;49.602;10.980;2022-10-31T04:54:27;9.40;99.90
10968;DHT22;5536;49.602;10.980;2022-10-31T04:56:54;9.60;99.90
10968;DHT22;5536;49.602;10.980;2022-10-31T04:59:21;9.50;99.90
10968;DHT22;5536;49.602;10.980;2022-10-31T05:01:48;9.60;99.90
10968;DHT22;5536;49.602;10.980;2022-10-31T05:04:15;9.70;99.90
10968;DHT22;5536;49.602;10.980;2022-10-31T05:06:42;9.80;99.90
10968;DHT22;5536;49.602;10.980;2022-10-31T05:09:09;9.90;99.90
10968;DHT22;5536;49.602;10.980;2022-10-31T05:11:37;9.90;99.90
10968;DHT22;5536;49.602;10.980;2022-10-31T05:14:04;9.90;99.90
10968;DHT22;5536;49.602;10.980;2022-10-31T05:16:31;10.10;99.90
10968;DHT22;5536;49.602;10.980;2022-10-31T05:18:58;10.20;99.90
10968;DHT22;5536;49.602;10.980;2022-10-31T05:21:25;10.30;99.90
10968;DHT22;5536;49.602;10.980;2022-10-31T05:23:52;10.30;99.90
10968;DHT22;5536;49.602;10.980;2022-10-31T05:26:18;10.20;99.90
10968;DHT22;5536;49.602;10.980;2022-10-31T05:28:47;10.00;99.90
10968;DHT22;5536;49.602;10.980;2022-10-31T05:31:14;9.90;99.90
10968;DHT22;5536;49.602;10.980;2022-10-31T05:33:41;9.80;99.90
10968;DHT22;5536;49.602;10.980;2022-10-31T05:36:08;9.80;99.90
10968;DHT22;5536;49.602;10.980;2022-10-31T05:38:35;9.90;99.90
10968;DHT22;5536;49.602;10.980;2022-10-31T05:41:02;9.90;99.90
10968;DHT22;5536;49.602;10.980;2022-10-31T05:43:29;10.00;99.90
10968;DHT22;5536;49.602;10.980;2022-10-31T05:45:57;9.90;99.90
10968;DHT22;5536;49.602;10.980;2022-10-31T05:48:24;9.90;99.90
10968;DHT22;5536;49.602;10.980;2022-10-31T05:50:51;9.90;99.90
10968;DHT22;5536;49.602;10.980;2022-10-31T05:53:18;9.90;99.90
10968;DHT22;5536;49.602;10.980;2022-10-31T05:55:46;10.00;99.90
10968;DHT22;5536;49.602;10.980;2022-10-31T05:58:13;9.90;99.90
10968;DHT22;5536;49.602;10.980;2022-10-31T06:00:40;9.90;99.90
10968;DHT22;5536;49.602;10.980;2022-10-31T06:03:09;9.90;99.90
10968;DHT22;5536;49.602;10.980;2022-10-31T06:05:36;10.00;99.90
10968;DHT22;5536;49.602;10.980;2022-10-31T06:08:03;10.00;99.90
10968;DHT22;5536;49.602;10.980;2022-10-31T06:10:30;9.80;99.90
10968;DHT22;5536;49.602;10.980;2022-10-31T06:12:57;9.90;99.90
10968;DHT22;5536;49.602;10.980;2022-10-31T06:15:24;10.00;99.90
10968;DHT22;5536;49.602;10.980;2022-10-31T06:17:59;10.10;99.90
10968;DHT22;5536;49.602;10.980;2022-10-31T06:20:27;10.10;99.90
10968;DHT22;5536;49.602;10.980;2022-10-31T06:22:54;10.10;99.90
10968;DHT22;5536;49.602;10.980;2022-10-31T06:25:21;9.90;99.90
10968;DHT22;5536;49.602;10.980;2022-10-31T06:27:48;10.00;99.90
10968;DHT22;5536;49.602;10.980;2022-10-31T06:30:16;9.80;99.90
10968;DHT22;5536;49.602;10.980;2022-10-31T06:32:45;9.70;99.90
10968;DHT22;5536;49.602;10.980;2022-10-31T06:35:12;9.60;99.90
10968;DHT22;5536;49.602;10.980;2022-10-31T06:37:41;9.50;99.90
10968;DHT22;5536;49.602;10.980;2022-10-31T06:40:09;9.50;99.90
10968;DHT22;5536;49.602;10.980;2022-10-31T06:42:36;9.50;99.90
10968;DHT22;5536;49.602;10.980;2022-10-31T06:45:03;9.50;99.90
10968;DHT22;5536;49.602;10.980;2022-10-31T06:47:30;9.50;99.90
10968;DHT22;5536;49.602;10.980;2022-10-31T06:49:57;9.50;99.90
10968;DHT22;5536;49.602;10.980;2022-10-31T06:52:24;9.50;99.90
10968;DHT22;5536;49.602;10.980;2022-10-31T06:54:52;9.60;99.90
10968;DHT22;5536;49.602;10.980;2022-10-31T06:57:19;9.50;99.90
10968;DHT22;5536;49.602;10.980;2022-10-31T06:59:46;9.60;99.90
10968;DHT22;5536;49.602;10.980;2022-10-31T07:02:13;9.70;99.90
10968;DHT22;5536;49.602;10.980;2022-10-31T07:04:40;9.80;99.90
10968;DHT22;5536;49.602;10.980;2022-10-31T07:07:07;9.90;99.90
10968;DHT22;5536;49.602;10.980;2022-10-31T07:09:34;10.10;99.90
10968;DHT22;5536;49.602;10.980;2022-10-31T07:12:03;10.10;99.90
10968;DHT22;5536;49.602;10.980;2022-10-31T07:14:30;10.20;99.90
10968;DHT22;5536;49.602;10.980;2022-10-31T07:16:57;10.30;99.90
10968;DHT22;5536;49.602;10.980;2022-10-31T07:19:24;10.20;99.90
10968;DHT22;5536;49.602;10.980;2022-10-31T07:21:51;10.20;99.90
10968;DHT22;5536;49.602;10.980;2022-10-31T07:24:18;10.30;99.90
10968;DHT22;5536;49.602;10.980;2022-10-31T07:26:45;10.30;99.90
10968;DHT22;5536;49.602;10.980;2022-10-31T07:29:14;10.30;99.90
10968;DHT22;5536;49.602;10.980;2022-10-31T07:31:41;10.20;99.90
10968;DHT22;5536;49.602;10.980;2022-10-31T07:34:09;10.40;99.90
10968;DHT22;5536;49.602;10.980;2022-10-31T07:36:36;10.40;99.90
10968;DHT22;5536;49.602;10.980;2022-10-31T07:39:03;10.50;99.90
10968;DHT22;5536;49.602;10.980;2022-10-31T07:41:31;10.40;99.90
10968;DHT22;5536;49.602;10.980;2022-10-31T07:43:58;10.50;99.90
10968;DHT22;5536;49.602;10.980;2022-10-31T07:46:26;10.60;99.90
10968;DHT22;5536;49.602;10.980;2022-10-31T07:48:54;10.70;99.90
10968;DHT22;5536;49.602;10.980;2022-10-31T07:51:20;10.80;99.90
10968;DHT22;5536;49.602;10.980;2022-10-31T07:53:49;10.80;99.90
10968;DHT22;5536;49.602;10.980;2022-10-31T07:56:16;10.90;99.90
10968;DHT22;5536;49.602;10.980;2022-10-31T07:58:44;10.90;99.90
10968;DHT22;5536;49.602;10.980;2022-10-31T08:01:11;10.90;99.90
10968;DHT22;5536;49.602;10.980;2022-10-31T08:03:40;10.80;99.90
10968;DHT22;5536;49.602;10.980;2022-10-31T08:06:07;10.70;99.90
10968;DHT22;5536;49.602;10.980;2022-10-31T08:08:34;10.80;99.90
10968;DHT22;5536;49.602;10.980;2022-10-31T08:11:02;10.80;99.90
10968;DHT22;5536;49.602;10.980;2022-10-31T08:13:29;10.90;99.90
10968;DHT22;5536;49.602;10.980;2022-10-31T08:15:57;10.90;99.90
10968;DHT22;5536;49.602;10.980;2022-10-31T08:18:29;11.00;99.90
10968;DHT22;5536;49.602;10.980;2022-10-31T08:20:58;10.90;99.90
10968;DHT22;5536;49.602;10.980;2022-10-31T08:23:25;10.70;99.90
10968;DHT22;5536;49.602;10.980;2022-10-31T08:25:52;10.90;99.90
10968;DHT22;5536;49.602;10.980;2022-10-31T08:28:19;10.90;99.90
10968;DHT22;5536;49.602;10.980;2022-10-31T08:30:46;11.00;99.90
10968;DHT22;5536;49.602;10.980;2022-10-31T08:33:15;11.20;99.90
10968;DHT22;5536;49.602;10.980;2022-10-31T08:35:47;11.30;99.90
10968;DHT22;5536;49.602;10.980;2022-10-31T08:38:16;11.50;99.90
10968;DHT22;5536;49.602;10.980;2022-10-31T08:40:47;11.40;99.90
10968;DHT22;5536;49.602;10.980;2022-10-31T08:43:15;11.40;99.90
10968;DHT22;5536;49.602;10.980;2022-10-31T08:45:43;11.50;99.90
10968;DHT22;5536;49.602;10.980;2022-10-31T08:48:12;11.60;99.90
10968;DHT22;5536;49.602;10.980;2022-10-31T08:50:40;11.60;99.90
10968;DHT22;5536;49.602;10.980;2022-10-31T08:53:09;11.60;99.90
10968;DHT22;5536;49.602;10.980;2022-10-31T08:55:39;11.60;99.90
10968;DHT22;5536;49.602;10.980;2022-10-31T08:58:10;11.60;99.90
10968;DHT22;5536;49.602;10.980;2022-10-31T09:00:37;11.50;99.90
10968;DHT22;5536;49.602;10.980;2022-10-31T09:03:06;11.60;99.90
10968;DHT22;5536;49.602;10.980;2022-10-31T09:05:33;11.80;99.90
10968;DHT22;5536;49.602;10.980;2022-10-31T09:08:02;11.80;99.90
10968;DHT22;5536;49.602;10.980;2022-10-31T09:10:31;11.90;99.90
10968;DHT22;5536;49.602;10.980;2022-10-31T09:13:02;11.90;99.90
10968;DHT22;5536;49.602;10.980;2022-10-31T09:15:32;12.00;99.90
10968;DHT22;5536;49.602;10.980;2022-10-31T09:18:00;12.00;99.90
10968;DHT22;5536;49.602;10.980;2022-10-31T09:20:27;12.20;99.90
10968;DHT22;5536;49.602;10.980;2022-10-31T09:22:59;12.30;99.90
10968;DHT22;5536;49.602;10.980;2022-10-31T09:25:26;12.40;99.90
10968;DHT22;5536;49.602;10.980;2022-10-31T09:27:56;12.40;99.90
10968;DHT22;5536;49.602;10.980;2022-10-31T09:30:26;12.60;99.90
10968;DHT22;5536;49.602;10.980;2022-10-31T09:32:56;12.70;99.90
10968;DHT22;5536;49.602;10.980;2022-10-31T09:35:23;12.80;99.90
10968;DHT22;5536;49.602;10.980;2022-10-31T09:37:54;13.00;99.90
10968;DHT22;5536;49.602;10.980;2022-10-31T09:40:22;13.00;99.90
10968;DHT22;5536;49.602;10.980;2022-10-31T09:42:56;12.90;99.90
10968;DHT22;5536;49.602;10.980;2022-10-31T09:45:36;13.10;99.90
10968;DHT22;5536;49.602;10.980;2022-10-31T09:51:05;13.30;99.90
10968;DHT22;5536;49.602;10.980;2022-10-31T09:53:42;13.40;99.90
10968;DHT22;5536;49.602;10.980;2022-10-31T09:56:13;13.40;99.90
10968;DHT22;5536;49.602;10.980;2022-10-31T09:58:44;13.50;99.90
10968;DHT22;5536;49.602;10.980;2022-10-31T10:01:29;13.50;99.90
10968;DHT22;5536;49.602;10.980;2022-10-31T10:04:01;13.60;99.90
10968;DHT22;5536;49.602;10.980;2022-10-31T10:06:33;13.80;99.90
10968;DHT22;5536;49.602;10.980;2022-10-31T10:09:01;13.90;99.90
10968;DHT22;5536;49.602;10.980;2022-10-31T10:11:36;13.90;99.90
10968;DHT22;5536;49.602;10.980;2022-10-31T10:14:16;14.10;99.90
10968;DHT22;5536;49.602;10.980;2022-10-31T10:17:00;14.20;99.90
10968;DHT22;5536;49.602;10.980;2022-10-31T10:19:48;14.50;99.90
10968;DHT22;5536;49.602;10.980;2022-10-31T10:22:23;14.60;99.90
10968;DHT22;5536;49.602;10.980;2022-10-31T10:25:02;14.70;99.90
10968;DHT22;5536;49.602;10.980;2022-10-31T10:27:46;14.90;99.90
10968;DHT22;5536;49.602;10.980;2022-10-31T10:30:17;15.00;99.90
10968;DHT22;5536;49.602;10.980;2022-10-31T10:32:48;15.10;99.90
10968;DHT22;5536;49.602;10.980;2022-10-31T10:35:22;15.30;99.90
10968;DHT22;5536;49.602;10.980;2022-10-31T10:37:52;15.40;99.90
10968;DHT22;5536;49.602;10.980;2022-10-31T10:40:21;15.50;99.90
10968;DHT22;5536;49.602;10.980;2022-10-31T10:43:00;15.60;99.90
10968;DHT22;5536;49.602;10.980;2022-10-31T10:45:50;15.70;99.90
10968;DHT22;5536;49.602;10.980;2022-10-31T10:48:45;15.90;99.90
10968;DHT22;5536;49.602;10.980;2022-10-31T10:51:22;16.10;99.90
10968;DHT22;5536;49.602;10.980;2022-10-31T10:54:10;16.40;99.90
10968;DHT22;5536;49.602;10.980;2022-10-31T10:56:52;16.50;99.90
10968;DHT22;5536;49.602;10.980;2022-10-31T10:59:21;16.70;99.90
10968;DHT22;5536;49.602;10.980;2022-10-31T11:01:50;16.80;99.90
10968;DHT22;5536;49.602;10.980;2022-10-31T11:04:30;17.00;99.90
10968;DHT22;5536;49.602;10.980;2022-10-31T11:06:59;17.00;99.90
10968;DHT22;5536;49.602;10.980;2022-10-31T11:09:27;16.90;99.90
10968;DHT22;5536;49.602;10.980;2022-10-31T11:11:54;16.90;99.90
10968;DHT22;5536;49.602;10.980;2022-10-31T11:14:23;17.00;99.90
10968;DHT22;5536;49.602;10.980;2022-10-31T11:16:53;17.00;99.90
10968;DHT22;5536;49.602;10.980;2022-10-31T11:19:25;17.10;99.90
10968;DHT22;5536;49.602;10.980;2022-10-31T11:21:53;17.20;99.90
10968;DHT22;5536;49.602;10.980;2022-10-31T11:24:22;17.20;99.90
10968;DHT22;5536;49.602;10.980;2022-10-31T11:26:51;17.40;99.90
10968;DHT22;5536;49.602;10.980;2022-10-31T11:29:30;17.40;99.90
10968;DHT22;5536;49.602;10.980;2022-10-31T11:31:57;17.50;99.90
10968;DHT22;5536;49.602;10.980;2022-10-31T11:34:30;17.60;99.90
10968;DHT22;5536;49.602;10.980;2022-10-31T11:37:03;17.80;99.90
10968;DHT22;5536;49.602;10.980;2022-10-31T11:39:31;18.00;99.90
10968;DHT22;5536;49.602;10.980;2022-10-31T11:42:00;18.00;99.90
10968;DHT22;5536;49.602;10.980;2022-10-31T11:44:30;18.00;99.90
10968;DHT22;5536;49.602;10.980;2022-10-31T11:46:59;18.00;99.90
10968;DHT22;5536;49.602;10.980;2022-10-31T11:49:31;18.10;99.90
10968;DHT22;5536;49.602;10.980;2022-10-31T11:52:04;18.10;99.90
10968;DHT22;5536;49.602;10.980;2022-10-31T11:54:34;18.30;99.90
10968;DHT22;5536;49.602;10.980;2022-10-31T11:57:05;18.50;99.90
10968;DHT22;5536;49.602;10.980;2022-10-31T11:59:32;18.60;99.90
10968;DHT22;5536;49.602;10.980;2022-10-31T12:02:00;18.70;99.90
10968;DHT22;5536;49.602;10.980;2022-10-31T12:04:35;18.80;99.90
10968;DHT22;5536;49.602;10.980;2022-10-31T12:07:04;18.90;99.90
10968;DHT22;5536;49.602;10.980;2022-10-31T12:09:33;18.90;99.90
10968;DHT22;5536;49.602;10.980;2022-10-31T12:15:29;19.00;99.90
10968;DHT22;5536;49.602;10.980;2022-10-31T12:18:28;19.10;99.90
10968;DHT22;5536;49.602;10.980;2022-10-31T12:21:08;19.10;99.90
10968;DHT22;5536;49.602;10.980;2022-10-31T12:23:57;19.10;99.90
10968;DHT22;5536;49.602;10.980;2022-10-31T12:26:31;19.20;99.90
10968;DHT22;5536;49.602;10.980;2022-10-31T12:29:11;19.30;99.90
10968;DHT22;5536;49.602;10.980;2022-10-31T12:31:51;19.30;99.90
10968;DHT22;5536;49.602;10.980;2022-10-31T12:34:46;19.30;99.90
10968;DHT22;5536;49.602;10.980;2022-10-31T12:37:26;19.30;99.90
10968;DHT22;5536;49.602;10.980;2022-10-31T12:40:09;19.30;99.90
10968;DHT22;5536;49.602;10.980;2022-10-31T12:42:49;19.40;99.90
10968;DHT22;5536;49.602;10.980;2022-10-31T12:45:44;19.30;99.90
10968;DHT22;5536;49.602;10.980;2022-10-31T12:48:33;19.50;99.90
10968;DHT22;5536;49.602;10.980;2022-10-31T12:51:10;19.30;99.90
10968;DHT22;5536;49.602;10.980;2022-10-31T12:53:52;19.40;99.90
10968;DHT22;5536;49.602;10.980;2022-10-31T12:56:31;19.40;99.90
10968;DHT22;5536;49.602;10.980;2022-10-31T12:59:09;19.40;99.90
10968;DHT22;5536;49.602;10.980;2022-10-31T13:01:40;19.40;99.90
10968;DHT22;5536;49.602;10.980;2022-10-31T13:04:14;19.30;99.90
10968;DHT22;5536;49.602;10.980;2022-10-31T13:06:48;19.10;99.90
10968;DHT22;5536;49.602;10.980;2022-10-31T13:09:19;19.10;99.90
10968;DHT22;5536;49.602;10.980;2022-10-31T13:11:50;19.00;99.90
10968;DHT22;5536;49.602;10.980;2022-10-31T13:14:23;19.00;99.90
10968;DHT22;5536;49.602;10.980;2022-10-31T13:16:51;18.90;99.90
10968;DHT22;5536;49.602;10.980;2022-10-31T13:19:22;18.70;99.90
10968;DHT22;5536;49.602;10.980;2022-10-31T13:21:55;18.70;99.90
10968;DHT22;5536;49.602;10.980;2022-10-31T13:24:33;18.60;99.90
10968;DHT22;5536;49.602;10.980;2022-10-31T13:27:03;18.50;99.90
10968;DHT22;5536;49.602;10.980;2022-10-31T13:29:40;18.50;99.90
10968;DHT22;5536;49.602;10.980;2022-10-31T13:32:10;18.40;99.90
10968;DHT22;5536;49.602;10.980;2022-10-31T13:34:39;18.40;99.90
10968;DHT22;5536;49.602;10.980;2022-10-31T13:37:18;18.30;99.90
10968;DHT22;5536;49.602;10.980;2022-10-31T13:40:03;18.30;99.90
10968;DHT22;5536;49.602;10.980;2022-10-31T13:42:53;18.10;99.90
10968;DHT22;5536;49.602;10.980;2022-10-31T13:45:23;18.00;99.90
10968;DHT22;5536;49.602;10.980;2022-10-31T13:47:58;18.00;99.90
10968;DHT22;5536;49.602;10.980;2022-10-31T13:50:27;17.90;99.90
10968;DHT22;5536;49.602;10.980;2022-10-31T13:53:11;17.80;99.90
10968;DHT22;5536;49.602;10.980;2022-10-31T13:55:42;17.80;99.90
10968;DHT22;5536;49.602;10.980;2022-10-31T13:58:23;17.70;99.90
10968;DHT22;5536;49.602;10.980;2022-10-31T14:01:05;17.60;99.90
10968;DHT22;5536;49.602;10.980;2022-10-31T14:03:40;17.60;99.90
10968;DHT22;5536;49.602;10.980;2022-10-31T14:06:10;17.60;99.90
10968;DHT22;5536;49.602;10.980;2022-10-31T14:08:40;17.50;99.90
10968;DHT22;5536;49.602;10.980;2022-10-31T14:11:20;17.60;99.90
10968;DHT22;5536;49.602;10.980;2022-10-31T14:13:48;17.60;99.90
10968;DHT22;5536;49.602;10.980;2022-10-31T14:16:20;17.60;99.90
10968;DHT22;5536;49.602;10.980;2022-10-31T14:18:51;17.60;99.90
10968;DHT22;5536;49.602;10.980;2022-10-31T14:21:27;17.50;99.90
10968;DHT22;5536;49.602;10.980;2022-10-31T14:23:55;17.40;99.90
10968;DHT22;5536;49.602;10.980;2022-10-31T14:26:35;17.30;99.90
10968;DHT22;5536;49.602;10.980;2022-10-31T14:29:23;17.20;99.90
10968;DHT22;5536;49.602;10.980;2022-10-31T14:31:56;17.10;99.90
10968;DHT22;5536;49.602;10.980;2022-10-31T14:34:27;17.10;99.90
10968;DHT22;5536;49.602;10.980;2022-10-31T14:43:10;17.00;99.90
10968;DHT22;5536;49.602;10.980;2022-10-31T14:45:47;17.00;99.90
10968;DHT22;5536;49.602;10.980;2022-10-31T14:48:32;16.90;99.90
10968;DHT22;5536;49.602;10.980;2022-10-31T14:51:07;16.80;99.90
10968;DHT22;5536;49.602;10.980;2022-10-31T14:53:46;16.80;99.90
10968;DHT22;5536;49.602;10.980;2022-10-31T14:56:20;16.80;99.90
10968;DHT22;5536;49.602;10.980;2022-10-31T14:58:49;16.80;99.90
10968;DHT22;5536;49.602;10.980;2022-10-31T15:01:21;16.70;99.90
10968;DHT22;5536;49.602;10.980;2022-10-31T15:03:49;16.70;99.90
10968;DHT22;5536;49.602;10.980;2022-10-31T15:06:20;16.60;99.90
10968;DHT22;5536;49.602;10.980;2022-10-31T15:08:50;16.60;99.90
10968;DHT22;5536;49.602;10.980;2022-10-31T15:11:18;16.50;99.90
10968;DHT22;5536;49.602;10.980;2022-10-31T15:13:47;16.50;99.90
10968;DHT22;5536;49.602;10.980;2022-10-31T15:16:18;16.40;99.90
10968;DHT22;5536;49.602;10.980;2022-10-31T15:18:49;16.40;99.90
10968;DHT22;5536;49.602;10.980;2022-10-31T15:21:17;16.30;99.90
10968;DHT22;5536;49.602;10.980;2022-10-31T15:23:46;16.20;99.90
10968;DHT22;5536;49.602;10.980;2022-10-31T15:26:17;16.20;99.90
10968;DHT22;5536;49.602;10.980;2022-10-31T15:28:44;16.10;99.90
10968;DHT22;5536;49.602;10.980;2022-10-31T15:31:17;16.10;99.90
10968;DHT22;5536;49.602;10.980;2022-10-31T15:33:47;16.00;99.90
10968;DHT22;5536;49.602;10.980;2022-10-31T15:36:20;15.90;99.90
10968;DHT22;5536;49.602;10.980;2022-10-31T15:38:48;15.90;99.90
10968;DHT22;5536;49.602;10.980;2022-10-31T15:41:27;15.90;99.90
10968;DHT22;5536;49.602;10.980;2022-10-31T15:43:56;15.80;99.90
10968;DHT22;5536;49.602;10.980;2022-10-31T15:46:25;15.70;99.90
10968;DHT22;5536;49.602;10.980;2022-10-31T15:48:53;15.70;99.90
10968;DHT22;5536;49.602;10.980;2022-10-31T15:51:26;15.60;99.90
10968;DHT22;5536;49.602;10.980;2022-10-31T15:53:55;15.50;99.90
10968;DHT22;5536;49.602;10.980;2022-10-31T15:56:24;15.50;99.90
10968;DHT22;5536;49.602;10.980;2022-10-31T15:58:52;15.50;99.90
10968;DHT22;5536;49.602;10.980;2022-10-31T16:01:22;15.40;99.90
10968;DHT22;5536;49.602;10.980;2022-10-31T16:04:05;15.40;99.90
10968;DHT22;5536;49.602;10.980;2022-10-31T16:06:58;15.40;99.90
10968;DHT22;5536;49.602;10.980;2022-10-31T16:09:25;15.40;99.90
10968;DHT22;5536;49.602;10.980;2022-10-31T16:11:52;15.40;99.90
10968;DHT22;5536;49.602;10.980;2022-10-31T16:14:24;15.30;99.90